createdAt,value
2022-10-19T00:00:05.230Z,48.86
2022-10-19T00:05:07.464Z,48.88
2022-10-19T00:10:09.608Z,49.04
2022-10-19T00:15:11.562Z,48.85
2022-10-19T00:20:13.462Z,49.09
2022-10-19T00:25:15.582Z,48.93
2022-10-19T00:30:17.925Z,48.77
2022-10-19T00:35:19.882Z,48.95
2022-10-19T00:40:22.065Z,49.05
2022-10-19T00:45:24.063Z,49.01
2022-10-19T00:50:25.858Z,49.06
2022-10-19T00:55:27.759Z,48.90
2022-10-19T01:00:30.104Z,48.89
2022-10-19T01:05:34.108Z,48.61
2022-10-19T01:10:52.572Z,49.11
2022-10-19T01:16:03.439Z,48.72
2022-10-19T01:21:18.739Z,48.59
2022-10-19T01:26:49.609Z,49.12
2022-10-19T01:32:01.517Z,48.94
2022-10-19T01:37:26.078Z,48.94
2022-10-19T01:42:37.764Z,49.01
2022-10-19T01:47:49.076Z,48.65
2022-10-19T01:52:53.752Z,48.80
2022-10-19T01:58:11.998Z,48.82
2022-10-19T02:03:15.211Z,48.94
2022-10-19T02:08:23.922Z,48.54
2022-10-19T02:13:27.953Z,49.02
2022-10-19T02:18:39.808Z,48.78
2022-10-19T02:23:41.562Z,48.78
2022-10-19T02:28:43.461Z,48.85
2022-10-19T02:33:45.454Z,48.85
2022-10-19T02:38:47.185Z,48.78
2022-10-19T02:43:53.120Z,48.77
2022-10-19T02:48:57.213Z,48.97
2022-10-19T02:54:02.604Z,48.88
2022-10-19T02:59:06.857Z,48.91
2022-10-19T03:04:08.708Z,48.91
2022-10-19T03:09:10.780Z,48.68
2022-10-19T03:14:12.659Z,48.92
2022-10-19T03:19:14.400Z,48.72
2022-10-19T03:24:16.467Z,48.54
2022-10-19T03:29:18.402Z,48.65
2022-10-19T03:34:20.187Z,48.55
2022-10-19T03:39:21.954Z,48.52
2022-10-19T03:44:23.573Z,48.47
2022-10-19T03:49:25.349Z,48.45
2022-10-19T03:59:40.397Z,48.44
2022-10-19T04:04:42.158Z,48.66
2022-10-19T04:09:43.975Z,48.43
2022-10-19T04:14:57.007Z,48.67
2022-10-19T04:19:59.480Z,48.72
2022-10-19T04:25:01.430Z,48.70
2022-10-19T04:30:03.548Z,48.33
2022-10-19T04:35:06.056Z,48.72
2022-10-19T04:40:14.187Z,48.55
2022-10-19T04:45:17.219Z,48.50
2022-10-19T04:50:18.979Z,48.48
2022-10-19T04:55:21.011Z,48.54
2022-10-19T05:00:22.917Z,48.50
2022-10-19T05:05:26.783Z,48.53
2022-10-19T05:10:30.016Z,48.32
2022-10-19T05:15:32.342Z,48.54
2022-10-19T05:20:34.203Z,48.79
2022-10-19T05:25:36.075Z,48.26
2022-10-19T05:30:39.584Z,48.49
2022-10-19T05:35:41.745Z,48.40
2022-10-19T05:40:50.271Z,48.58
2022-10-19T05:45:54.761Z,48.59
2022-10-19T05:50:57.538Z,48.49
2022-10-19T05:56:01.392Z,48.62
2022-10-19T06:01:03.509Z,48.21
2022-10-19T06:06:06.950Z,48.52
2022-10-19T06:11:11.830Z,48.30
2022-10-19T06:16:16.324Z,47.59
2022-10-19T06:21:20.502Z,48.06
2022-10-19T06:26:23.735Z,48.02
2022-10-19T06:31:25.531Z,47.58
2022-10-19T06:36:30.350Z,48.11
2022-10-19T06:41:32.581Z,48.27
2022-10-19T06:46:36.060Z,47.42
2022-10-19T06:51:37.770Z,46.39
2022-10-19T06:56:39.528Z,45.55
2022-10-19T07:01:41.285Z,45.15
2022-10-19T07:06:43.112Z,45.49
2022-10-19T07:11:46.115Z,45.38
2022-10-19T07:16:50.288Z,45.26
2022-10-19T07:21:53.169Z,44.72
2022-10-19T07:26:59.598Z,44.59
2022-10-19T07:32:03.543Z,44.21
2022-10-19T07:37:05.319Z,44.08
2022-10-19T07:42:07.704Z,44.02
2022-10-19T07:47:10.763Z,44.27
2022-10-19T07:52:12.727Z,44.46
2022-10-19T07:57:15.760Z,44.40
2022-10-19T08:02:18.564Z,44.88
2022-10-19T08:07:23.365Z,45.23
2022-10-19T08:12:25.766Z,44.96
2022-10-19T08:17:27.762Z,45.14
2022-10-19T08:22:29.852Z,45.33
2022-10-19T08:27:33.496Z,45.11
2022-10-19T08:32:35.592Z,45.28
2022-10-19T08:37:44.864Z,45.32
2022-10-19T08:43:02.913Z,45.56
2022-10-19T08:48:20.610Z,45.69
2022-10-19T08:53:51.706Z,46.25
2022-10-19T08:58:58.685Z,45.89
2022-10-19T09:04:15.254Z,45.93
2022-10-19T09:09:18.917Z,46.18
2022-10-19T09:14:31.909Z,46.11
2022-10-19T09:19:35.609Z,45.97
2022-10-19T09:24:41.178Z,46.25
2022-10-19T09:29:46.415Z,46.06
2022-10-19T09:34:55.837Z,46.00
2022-10-19T09:39:57.569Z,45.70
2022-10-19T09:45:02.165Z,46.11
2022-10-19T09:50:09.904Z,46.13
2022-10-19T09:55:16.588Z,45.94
2022-10-19T10:00:20.732Z,46.33
2022-10-19T10:05:32.651Z,46.25
2022-10-19T10:10:43.115Z,46.27
2022-10-19T10:15:49.713Z,46.37
2022-10-19T10:21:14.577Z,46.47
2022-10-19T10:26:20.974Z,46.01
2022-10-19T10:31:29.817Z,46.39
2022-10-19T10:36:32.824Z,46.20
2022-10-19T10:41:45.197Z,46.12
2022-10-19T10:47:06.919Z,46.45
2022-10-19T10:52:20.297Z,46.15
2022-10-19T11:02:50.875Z,46.00
2022-10-19T11:08:06.322Z,46.45
2022-10-19T11:13:18.816Z,46.61
2022-10-19T11:18:48.231Z,46.70
2022-10-19T11:24:10.664Z,46.61
2022-10-19T11:29:37.438Z,46.51
2022-10-19T11:35:23.465Z,46.64
2022-10-19T11:40:45.857Z,46.40
2022-10-19T11:46:12.360Z,46.44
2022-10-19T11:51:42.129Z,46.42
2022-10-19T11:57:33.606Z,46.61
2022-10-19T12:03:06.868Z,46.69
2022-10-19T12:08:14.667Z,46.47
2022-10-19T12:13:23.406Z,46.64
2022-10-19T12:18:45.041Z,46.75
2022-10-19T12:23:48.505Z,46.59
2022-10-19T12:28:55.961Z,46.85
2022-10-19T12:34:08.247Z,46.89
2022-10-19T12:39:11.452Z,46.86
2022-10-19T12:44:16.439Z,46.52
2022-10-19T12:49:28.698Z,46.57
2022-10-19T12:54:34.294Z,46.62
2022-10-19T12:59:37.540Z,46.77
2022-10-19T13:04:39.476Z,46.84
2022-10-19T13:09:44.326Z,46.95
2022-10-19T13:14:55.246Z,46.91
2022-10-19T13:20:16.801Z,46.95
2022-10-19T13:25:40.290Z,46.64
2022-10-19T13:30:45.333Z,46.73
2022-10-19T13:35:47.958Z,46.80
2022-10-19T13:40:52.250Z,46.99
2022-10-19T13:46:22.703Z,47.04
2022-10-19T13:51:46.307Z,46.83
2022-10-19T13:57:10.037Z,46.90
2022-10-19T14:02:38.096Z,46.89
2022-10-19T14:07:57.022Z,46.84
2022-10-19T14:12:59.525Z,46.86
2022-10-19T14:18:03.786Z,46.95
2022-10-19T14:23:35.614Z,46.69
2022-10-19T14:28:38.731Z,46.87
2022-10-19T14:33:45.503Z,46.77
2022-10-19T14:38:49.941Z,46.59
2022-10-19T14:43:51.588Z,46.96
2022-10-19T14:49:00.471Z,46.98
2022-10-19T14:54:31.497Z,47.00
2022-10-19T14:59:46.633Z,47.14
2022-10-19T15:04:53.508Z,47.11
2022-10-19T15:10:03.126Z,46.80
2022-10-19T15:15:11.716Z,47.01
2022-10-19T15:20:43.805Z,47.18
2022-10-19T15:26:03.267Z,46.92
2022-10-19T15:31:26.911Z,47.16
2022-10-19T15:36:33.060Z,47.31
2022-10-19T15:41:37.926Z,47.06
2022-10-19T15:47:15.353Z,47.41
2022-10-19T15:52:19.626Z,47.60
2022-10-19T15:57:35.034Z,47.40
2022-10-19T16:02:37.192Z,47.11
2022-10-19T16:07:40.994Z,47.21
2022-10-19T16:12:46.380Z,46.99
2022-10-19T16:17:52.375Z,46.88
2022-10-19T16:22:54.172Z,47.06
2022-10-19T16:27:55.851Z,47.19
2022-10-19T16:33:01.089Z,46.95
2022-10-19T16:38:05.981Z,47.10
2022-10-19T16:43:07.897Z,47.09
2022-10-19T16:48:12.172Z,47.19
2022-10-19T16:53:14.391Z,46.65
2022-10-19T16:58:16.216Z,46.91
2022-10-19T17:03:18.309Z,47.10
2022-10-19T17:08:21.612Z,47.21
2022-10-19T17:13:23.677Z,46.69
2022-10-19T17:18:25.354Z,46.88
2022-10-19T17:23:27.153Z,46.85
2022-10-19T17:28:29.307Z,47.09
2022-10-19T17:33:31.693Z,47.09
2022-10-19T17:38:33.989Z,46.68
2022-10-19T17:43:39.553Z,46.89
2022-10-19T17:48:43.409Z,47.16
2022-10-19T17:53:47.872Z,47.21
2022-10-19T17:58:53.006Z,47.38
2022-10-19T18:03:55.299Z,47.43
2022-10-19T18:08:58.678Z,47.50
2022-10-19T18:14:01.579Z,47.75
2022-10-19T18:19:05.303Z,47.85
2022-10-19T18:24:12.729Z,47.77
2022-10-19T18:29:20.620Z,47.45
2022-10-19T18:34:29.357Z,47.21
2022-10-19T18:39:31.277Z,47.35
2022-10-19T18:44:33.783Z,47.12
2022-10-19T18:49:35.986Z,47.07
2022-10-19T18:54:37.848Z,47.23
2022-10-19T18:59:39.620Z,47.06
2022-10-19T19:04:41.514Z,47.24
2022-10-19T19:09:43.968Z,47.14
2022-10-19T19:14:46.270Z,47.49
2022-10-19T19:19:49.511Z,46.88
2022-10-19T19:24:51.393Z,46.96
2022-10-19T19:29:57.949Z,47.36
2022-10-19T19:34:59.813Z,46.89
2022-10-19T19:40:01.744Z,46.86
2022-10-19T19:45:03.780Z,47.11
2022-10-19T19:50:06.046Z,47.25
2022-10-19T19:55:09.305Z,46.87
2022-10-19T20:00:11.765Z,47.04
2022-10-19T20:05:13.561Z,46.80
2022-10-19T20:10:17.604Z,46.90
2022-10-19T20:15:19.534Z,46.74
2022-10-19T20:20:22.503Z,47.01
2022-10-19T20:25:24.384Z,46.89
2022-10-19T20:30:26.278Z,47.36
2022-10-19T20:35:28.213Z,47.42
2022-10-19T20:45:51.750Z,46.90
2022-10-19T20:50:53.718Z,47.07
2022-10-19T20:55:55.487Z,47.21
2022-10-19T21:00:57.442Z,47.00
2022-10-19T21:06:03.027Z,46.91
2022-10-19T21:11:24.014Z,46.86
2022-10-19T21:16:27.816Z,47.09
2022-10-19T21:21:32.921Z,46.93
2022-10-19T21:26:36.377Z,46.85
2022-10-19T21:31:43.005Z,46.78
2022-10-19T21:36:47.375Z,46.91
2022-10-19T21:41:49.407Z,46.88
2022-10-19T21:46:51.490Z,47.04
2022-10-19T21:51:55.018Z,46.89
2022-10-19T21:56:58.639Z,46.88
2022-10-19T22:02:03.447Z,46.81
2022-10-19T22:07:05.468Z,46.85
2022-10-19T22:12:07.291Z,46.84
2022-10-19T22:17:09.203Z,46.87
2022-10-19T22:22:11.255Z,46.67
2022-10-19T22:27:13.096Z,46.72
2022-10-19T22:32:15.067Z,46.87
2022-10-19T22:37:16.815Z,46.89
2022-10-19T22:43:14.883Z,46.64
2022-10-19T22:48:18.097Z,46.66
2022-10-19T22:53:20.216Z,46.77
2022-10-19T22:58:22.101Z,46.91
2022-10-19T23:03:24.179Z,46.89
2022-10-19T23:08:26.312Z,46.78
2022-10-19T23:13:28.389Z,46.83
2022-10-19T23:18:34.567Z,46.92
2022-10-19T23:23:37.372Z,46.83
2022-10-19T23:28:41.136Z,46.50
2022-10-19T23:33:44.018Z,46.79
2022-10-19T23:38:46.917Z,46.80
2022-10-19T23:43:49.284Z,46.56
2022-10-19T23:48:51.237Z,46.83
2022-10-19T23:53:53.596Z,46.74
2022-10-19T23:58:55.955Z,46.71
